Strona główna
METAR-TAF:

METAR-TAF

Lotnisko :

Port lotniczy Chimoio

Chimoio, Mozambik

Szerokość geograficzna: 19-07S, Długość geograficzna: 033-28E, wysokość: 731 m

Aktualna obserwacja pogody

Raport powstał 22 minut temu, godzina 18:00 UTC
Temperatura 19°C
Wilgotność 68%
Ciśnienie 1025 hPa
Widzialność 10 km lub więcej
Brak chmur poniżej 1500 m i brak chmur cumulonimbus

METAR: FQCH 191800Z /////KT CAVOK 19/13 Q1025

czas: 20:22 (18:22 UTC)

Prognoza

Raport powstał 2 godziny i 22 minut temu, godzina 16:00 UTC
Prognoza ważna od 19 godzina 18 UTC do 20 godzina 18 UTC
Wiatr 8 kt od wschód
Widzialność 10 km lub więcej
Przerywane chmury na wysokości 1500 ft
Stopniowe zmiany
od 20 godzina 06 UTC do 20 godzina 08 UTC
Wiatr 2 kt z kierunków zmiennych
Stopniowe zmiany
od 20 godzina 12 UTC do 20 godzina 14 UTC
Wiatr 10 kt od południowy wschód

TAF: FQCH 191600Z 1918/2018 08008KT 9999 BKN015 TX24/2013Z TN13/2003Z BECMG 2006/2008 VRB02KT BECMG 2012/2014 14010KT

Obserwacja i prognoza pogody dla ponad 4000 lotnisk (raport METAR i TAF).

Dostępne stacje oznaczono żółtymi i czerwonymi punktami na mapie.

Najedź kursorem aby zobaczyć nazwę stacji.

Kliknij aby zobaczyć obserwacje i prognozy pogody.

Aby zmienić mapę: kliknij na zielony przycisk z czarnym krzyżykiem, aby powiększyć; na zielony przycisk z myślnikiem, aby pomniejszyć; na zielone strzałki, aby przejść do map sąsiednich.


METAR-TAF: